VJT260 LZTT-LIRP
Flight info
| Callsign | VJT260 |
|---|---|
| Flight time | N/A |
| Altitude | 38000 |
| Route | UMARY DCT BEGLA DCT RADLY DCT PEVAL DCT BIKTU DCT PRT |
| Aircraft | GLEX/M-SBDE1E2E3FGHIJ1J4J5J7M3RWXYZ/LB1V1D1 |
Departure
| Time | N/A |
|---|---|
| Airport | Poprad-Tatry Airport (LZTT) |
Arrival
| Time | 2026-05-03 20:18 |
|---|---|
| Airport | Pisa International Airport (LIRP) |
| Time | Latitude | Longitude | Altitude | Speed | Heading |
|---|---|---|---|---|---|
| 2026-05-03 20:15 | 43.77059 | 10.45463 | 2411 ft | 160 kts | 204° |
| 2026-05-03 20:15 | 43.76097 | 10.44820 | 2129 ft | 141 kts | 205° |
| 2026-05-03 20:15 | 43.75270 | 10.44238 | 1876 ft | 129 kts | 205° |
| 2026-05-03 20:15 | 43.74471 | 10.43717 | 1592 ft | 124 kts | 203° |
| 2026-05-03 20:16 | 43.73708 | 10.43230 | 1261 ft | 122 kts | 204° |
| 2026-05-03 20:16 | 43.73009 | 10.42775 | 962 ft | 118 kts | 205° |
| 2026-05-03 20:16 | 43.72254 | 10.42338 | 759 ft | 121 kts | 190° |
| 2026-05-03 20:16 | 43.71418 | 10.42226 | 538 ft | 119 kts | 188° |
| 2026-05-03 20:17 | 43.70663 | 10.41795 | 431 ft | 121 kts | 216° |
| 2026-05-03 20:17 | 43.69989 | 10.41088 | 257 ft | 122 kts | 216° |
| 2026-05-03 20:17 | 43.69312 | 10.40393 | 73 ft | 121 kts | 218° |
| 2026-05-03 20:17 | 43.68671 | 10.39728 | 14 ft | 100 kts | 217° |
| 2026-05-03 20:18 | 43.68229 | 10.39273 | 13 ft | 49 kts | 217° |
| 2026-05-03 20:18 | 43.68119 | 10.39148 | 13 ft | 7 kts | 265° |
| 2026-05-03 20:18 | 43.68158 | 10.39076 | 13 ft | 11 kts | 307° |
| 2026-05-03 20:18 | 43.68216 | 10.38979 | 13 ft | 13 kts | 311° |
| 2026-05-03 20:19 | 43.68292 | 10.39006 | 14 ft | 15 kts | 36° |
| 2026-05-03 20:19 | 43.68412 | 10.39133 | 14 ft | 27 kts | 36° |
| 2026-05-03 20:19 | 43.68584 | 10.39311 | 14 ft | 32 kts | 38° |
| 2026-05-03 20:19 | 43.68774 | 10.39507 | 14 ft | 37 kts | 36° |
| 2026-05-03 20:20 | 43.68989 | 10.39726 | 14 ft | 38 kts | 35° |
| 2026-05-03 20:20 | 43.69165 | 10.39903 | 15 ft | 22 kts | 25° |
| 2026-05-03 20:20 | 43.69313 | 10.39902 | 15 ft | 14 kts | 352° |
| 2026-05-03 20:20 | 43.69399 | 10.39890 | 15 ft | 12 kts | 358° |
| 2026-05-03 20:21 | 43.69496 | 10.39908 | 16 ft | 15 kts | 9° |
| 2026-05-03 20:21 | 43.69585 | 10.39928 | 16 ft | 7 kts | 9° |
| 2026-05-03 20:21 | 43.69629 | 10.39939 | 16 ft | 3 kts | 22° |
| 2026-05-03 20:21 | 43.69633 | 10.39967 | 16 ft | 3 kts | 97° |
| 2026-05-03 20:22 | 43.69633 | 10.39990 | 16 ft | 1 kts | 65° |
| 2026-05-03 20:22 | 43.69634 | 10.39991 | 16 ft | 0 kts | 63° |